LBSF

Sofia Airport

Sofia, Bulgaria
TAF LBSF 230500Z 2306/2406 VRB04KT CAVOK BECMG 2309/2311 30008KT BECMG 2318/2320 VRB04KT TEMPO 2402/2406 5000 BR NSC
Issued Valid From Valid To
Apr-23 @ 05:00 UTC
(4 hours ago)
Apr-23 @ 06:00 UTC
(3 hours ago)
Apr-24 @ 06:00 UTC
(in 21 hours)
Expired Click to View Apr-23 @ 06:00 to Apr-23 @ 09:00
TAF LBSF 230500Z 2306/2406 VRB04KT CAVOK
Wind Visibility Clouds Conditions
Variable at 4 knots 10,000+ meters
  • No significant clouds
Becoming Apr-23 @ 09:00 to Apr-23 @ 18:00
BECMG 2309/2311 30008KT
Wind Visibility Clouds Conditions
300° at 8 knots 10,000+ meters
  • No significant clouds
Becoming Apr-23 @ 18:00 to Apr-24 @ 06:00
BECMG 2318/2320 VRB04KT
Wind Visibility Clouds Conditions
Variable at 4 knots 10,000+ meters
  • No significant clouds
Temporary Apr-24 @ 02:00 to Apr-24 @ 06:00
TEMPO 2402/2406 5000 BR NSC
Visibility Clouds Conditions
5,005 meters
  • No significant clouds
  • Mist
TAF LBSF 230500Z 2306/2406 VRB04KT CAVOK BECMG 2309/2311 30008KT BECMG 2318/2320 VRB04KT TEMPO 2402/2406 5000 BR NSC
Issued Apr-23 @ 05:00 UTC
(4 hours ago)
Valid From Apr-23 @ 06:00 UTC
(3 hours ago)
Valid To Apr-24 @ 06:00 UTC
(in 21 hours)
Apr-23 @ 06:00 - Apr-23 @ 09:00
Wind Visibility
Variable at 4 knots 10,000+ meters
Clouds
  • No significant clouds
Conditions
Becoming Apr-23 @ 09:00 - Apr-23 @ 18:00
Wind Visibility
300° at 8 knots 10,000+ meters
Clouds
  • No significant clouds
Conditions
Becoming Apr-23 @ 18:00 - Apr-24 @ 06:00
Wind Visibility
Variable at 4 knots 10,000+ meters
Clouds
  • No significant clouds
Conditions
Temporary Apr-24 @ 02:00 - Apr-24 @ 06:00
Clouds
  • No significant clouds
Conditions
  • Mist